sensor_id;sensor_type;location;lat;lon;timestamp;pressure;altitude;pressure_sealevel;temperature;humidity
28432;BME280;15664;51.302;7.744;2023-04-04T00:02:14;83906.69;;;-146.98;73.79
28432;BME280;15664;51.302;7.744;2023-04-04T00:04:40;83874.09;;;-146.98;73.72
28432;BME280;15664;51.302;7.744;2023-04-04T00:07:05;83898.53;;;-146.98;73.59
28432;BME280;15664;51.302;7.744;2023-04-04T00:09:31;83910.75;;;-146.98;71.97
28432;BME280;15664;51.302;7.744;2023-04-04T00:11:57;83904.66;;;-146.98;72.00
28432;BME280;15664;51.302;7.744;2023-04-04T00:14:23;83886.31;;;-146.98;71.60
28432;BME280;15664;51.302;7.744;2023-04-04T00:16:49;83843.53;;;-146.98;72.20
28432;BME280;15664;51.302;7.744;2023-04-04T00:19:14;83898.53;;;-146.98;74.03
28432;BME280;15664;51.302;7.744;2023-04-04T00:21:43;83874.09;;;-146.98;73.77
28432;BME280;15664;51.302;7.744;2023-04-04T00:24:10;83931.13;;;-146.98;73.39
28432;BME280;15664;51.302;7.744;2023-04-04T00:26:35;83861.88;;;-146.98;72.65
28432;BME280;15664;51.302;7.744;2023-04-04T00:29:01;83902.63;;;-146.98;71.91
28432;BME280;15664;51.302;7.744;2023-04-04T00:31:26;83890.38;;;-146.98;72.28
28432;BME280;15664;51.302;7.744;2023-04-04T00:33:52;83872.06;;;-146.98;72.87
28432;BME280;15664;51.302;7.744;2023-04-04T00:36:17;83882.25;;;-146.98;73.25
28432;BME280;15664;51.302;7.744;2023-04-04T00:38:43;83849.66;;;-146.98;73.58
28432;BME280;15664;51.302;7.744;2023-04-04T00:41:10;83861.88;;;-146.98;73.16
28432;BME280;15664;51.302;7.744;2023-04-04T00:43:35;83882.25;;;-146.98;73.62
28432;BME280;15664;51.302;7.744;2023-04-04T00:46:01;83843.53;;;-146.98;73.59
28432;BME280;15664;51.302;7.744;2023-04-04T00:48:27;83892.44;;;-146.98;73.25
28432;BME280;15664;51.302;7.744;2023-04-04T00:50:52;83939.28;;;-146.98;72.81
28432;BME280;15664;51.302;7.744;2023-04-04T00:53:17;83855.75;;;-146.98;72.69
28432;BME280;15664;51.302;7.744;2023-04-04T00:55:43;83898.53;;;-146.98;72.05
28432;BME280;15664;51.302;7.744;2023-04-04T00:58:09;83874.09;;;-146.98;72.00
28432;BME280;15664;51.302;7.744;2023-04-04T01:00:35;83829.28;;;-146.98;71.49
28432;BME280;15664;51.302;7.744;2023-04-04T01:03:02;83861.88;;;-146.98;71.39
28432;BME280;15664;51.302;7.744;2023-04-04T01:05:30;83882.25;;;-146.98;71.50
28432;BME280;15664;51.302;7.744;2023-04-04T01:07:56;83859.84;;;-146.98;71.64
28432;BME280;15664;51.302;7.744;2023-04-04T01:10:22;83878.16;;;-146.98;71.60
28432;BME280;15664;51.302;7.744;2023-04-04T01:12:48;83829.28;;;-146.98;71.65
28432;BME280;15664;51.302;7.744;2023-04-04T01:15:14;83878.16;;;-146.98;71.99
28432;BME280;15664;51.302;7.744;2023-04-04T01:17:40;83865.94;;;-146.98;72.27
28432;BME280;15664;51.302;7.744;2023-04-04T01:20:14;83890.38;;;-146.98;72.51
28432;BME280;15664;51.302;7.744;2023-04-04T01:22:46;83925.03;;;-146.98;72.88
28432;BME280;15664;51.302;7.744;2023-04-04T01:25:15;83953.53;;;-146.98;73.46
28432;BME280;15664;51.302;7.744;2023-04-04T01:27:45;83870.03;;;-146.98;73.29
28432;BME280;15664;51.302;7.744;2023-04-04T01:30:13;83888.34;;;-146.98;73.22
28432;BME280;15664;51.302;7.744;2023-04-04T01:32:45;83892.44;;;-146.98;73.32
28432;BME280;15664;51.302;7.744;2023-04-04T01:35:28;83922.97;;;-146.98;73.28
28432;BME280;15664;51.302;7.744;2023-04-04T01:38:28;83906.69;;;-146.98;73.82
28432;BME280;15664;51.302;7.744;2023-04-04T01:41:00;83898.53;;;-146.98;74.15
28432;BME280;15664;51.302;7.744;2023-04-04T01:43:29;83857.81;;;-146.98;74.32
28432;BME280;15664;51.302;7.744;2023-04-04T01:45:59;83896.50;;;-146.98;74.73
28432;BME280;15664;51.302;7.744;2023-04-04T01:48:26;83896.50;;;-146.98;75.26
28432;BME280;15664;51.302;7.744;2023-04-04T01:50:54;83857.81;;;-146.98;74.96
28432;BME280;15664;51.302;7.744;2023-04-04T01:53:21;83898.53;;;-146.98;74.67
28432;BME280;15664;51.302;7.744;2023-04-04T01:55:47;83922.97;;;-146.98;73.93
28432;BME280;15664;51.302;7.744;2023-04-04T01:58:15;83916.88;;;-146.98;73.68
28432;BME280;15664;51.302;7.744;2023-04-04T02:00:40;83894.47;;;-146.98;73.86
28432;BME280;15664;51.302;7.744;2023-04-04T02:03:05;83872.06;;;-146.98;73.99
28432;BME280;15664;51.302;7.744;2023-04-04T02:05:31;83910.75;;;-146.98;75.51
28432;BME280;15664;51.302;7.744;2023-04-04T02:07:58;83906.69;;;-146.98;77.14
28432;BME280;15664;51.302;7.744;2023-04-04T02:10:31;83927.06;;;-146.98;76.33
28432;BME280;15664;51.302;7.744;2023-04-04T02:12:56;83861.88;;;-146.98;75.58
28432;BME280;15664;51.302;7.744;2023-04-04T02:15:22;83874.09;;;-146.98;74.62
28432;BME280;15664;51.302;7.744;2023-04-04T02:17:49;83916.88;;;-146.98;74.67
28432;BME280;15664;51.302;7.744;2023-04-04T02:20:15;83902.63;;;-146.98;74.14
28432;BME280;15664;51.302;7.744;2023-04-04T02:22:53;83898.53;;;-146.98;73.48
28432;BME280;15664;51.302;7.744;2023-04-04T02:25:23;83906.69;;;-146.98;73.20
28432;BME280;15664;51.302;7.744;2023-04-04T02:27:48;83870.03;;;-146.98;73.69
28432;BME280;15664;51.302;7.744;2023-04-04T02:30:14;83894.47;;;-146.98;74.50
28432;BME280;15664;51.302;7.744;2023-04-04T02:32:40;83943.34;;;-146.98;75.14
28432;BME280;15664;51.302;7.744;2023-04-04T02:35:11;83865.94;;;-146.98;75.76
28432;BME280;15664;51.302;7.744;2023-04-04T02:37:37;83914.84;;;-146.98;76.54
28432;BME280;15664;51.302;7.744;2023-04-04T02:40:07;83935.19;;;-146.98;77.12
28432;BME280;15664;51.302;7.744;2023-04-04T02:42:35;83912.78;;;-146.98;77.56
28432;BME280;15664;51.302;7.744;2023-04-04T02:45:01;83953.53;;;-146.98;77.61
28432;BME280;15664;51.302;7.744;2023-04-04T02:47:27;83963.72;;;-146.98;78.07
28432;BME280;15664;51.302;7.744;2023-04-04T02:49:53;83947.41;;;-146.98;78.14
28432;BME280;15664;51.302;7.744;2023-04-04T02:52:20;83992.22;;;-146.98;78.86
28432;BME280;15664;51.302;7.744;2023-04-04T02:54:46;83925.03;;;-146.98;79.65
28432;BME280;15664;51.302;7.744;2023-04-04T02:57:22;83943.34;;;-146.98;80.26
28432;BME280;15664;51.302;7.744;2023-04-04T02:59:48;84008.53;;;-146.98;79.36
28432;BME280;15664;51.302;7.744;2023-04-04T03:02:13;83939.28;;;-146.98;79.43
28432;BME280;15664;51.302;7.744;2023-04-04T03:04:39;83874.09;;;-146.98;79.26
28432;BME280;15664;51.302;7.744;2023-04-04T03:07:04;83953.53;;;-146.98;78.55
28432;BME280;15664;51.302;7.744;2023-04-04T03:09:30;83943.34;;;-146.98;78.23
28432;BME280;15664;51.302;7.744;2023-04-04T03:11:55;83922.97;;;-146.98;78.26
28432;BME280;15664;51.302;7.744;2023-04-04T03:14:21;83910.75;;;-146.98;79.38
28432;BME280;15664;51.302;7.744;2023-04-04T03:16:47;83898.53;;;-146.98;79.82
28432;BME280;15664;51.302;7.744;2023-04-04T03:19:16;83927.06;;;-146.98;78.96
28432;BME280;15664;51.302;7.744;2023-04-04T03:21:42;83947.41;;;-146.98;78.26
28432;BME280;15664;51.302;7.744;2023-04-04T03:24:07;83927.06;;;-146.98;78.04
28432;BME280;15664;51.302;7.744;2023-04-04T03:26:33;83975.94;;;-146.98;78.35
28432;BME280;15664;51.302;7.744;2023-04-04T03:28:59;83906.69;;;-146.98;78.60
28432;BME280;15664;51.302;7.744;2023-04-04T03:31:24;83961.69;;;-146.98;78.99
28432;BME280;15664;51.302;7.744;2023-04-04T03:33:50;84057.41;;;-146.98;79.26
28432;BME280;15664;51.302;7.744;2023-04-04T03:36:15;83951.50;;;-146.98;80.77
28432;BME280;15664;51.302;7.744;2023-04-04T03:38:41;83963.72;;;-146.98;83.43
28432;BME280;15664;51.302;7.744;2023-04-04T03:41:08;83929.09;;;-146.98;84.12
28432;BME280;15664;51.302;7.744;2023-04-04T03:43:33;83937.25;;;-146.98;85.61
28432;BME280;15664;51.302;7.744;2023-04-04T03:46:03;83943.34;;;-146.98;86.32
28432;BME280;15664;51.302;7.744;2023-04-04T03:48:29;83996.31;;;-146.98;85.80
28432;BME280;15664;51.302;7.744;2023-04-04T03:50:58;83922.97;;;-146.98;86.11
28432;BME280;15664;51.302;7.744;2023-04-04T03:53:24;83943.34;;;-146.98;85.67
28432;BME280;15664;51.302;7.744;2023-04-04T03:55:51;83965.75;;;-146.98;85.51
28432;BME280;15664;51.302;7.744;2023-04-04T03:58:18;83920.94;;;-146.98;85.07
28432;BME280;15664;51.302;7.744;2023-04-04T04:00:43;83947.41;;;-146.98;84.70
28432;BME280;15664;51.302;7.744;2023-04-04T04:03:09;83939.28;;;-146.98;84.51
28432;BME280;15664;51.302;7.744;2023-04-04T04:05:35;83965.75;;;-146.98;83.80
28432;BME280;15664;51.302;7.744;2023-04-04T04:08:00;83965.75;;;-146.98;83.31
28432;BME280;15664;51.302;7.744;2023-04-04T04:10:26;83955.56;;;-146.98;83.18
28432;BME280;15664;51.302;7.744;2023-04-04T04:12:52;83967.78;;;-146.98;83.15
28432;BME280;15664;51.302;7.744;2023-04-04T04:15:17;83969.81;;;-146.98;83.13
28432;BME280;15664;51.302;7.744;2023-04-04T04:17:44;84028.91;;;-146.98;82.92
28432;BME280;15664;51.302;7.744;2023-04-04T04:20:11;83988.16;;;-146.98;83.09
28432;BME280;15664;51.302;7.744;2023-04-04T04:22:45;83973.91;;;-146.98;83.34
28432;BME280;15664;51.302;7.744;2023-04-04T04:25:12;83980.00;;;-146.98;83.63
28432;BME280;15664;51.302;7.744;2023-04-04T04:27:41;83947.41;;;-146.98;84.25
28432;BME280;15664;51.302;7.744;2023-04-04T04:30:07;83967.78;;;-146.98;84.27
28432;BME280;15664;51.302;7.744;2023-04-04T04:32:37;83971.88;;;-146.98;84.36
28432;BME280;15664;51.302;7.744;2023-04-04T04:35:02;84004.44;;;-146.98;84.67
28432;BME280;15664;51.302;7.744;2023-04-04T04:37:31;83955.56;;;-146.98;84.37
28432;BME280;15664;51.302;7.744;2023-04-04T04:39:57;84045.19;;;-146.98;84.01
28432;BME280;15664;51.302;7.744;2023-04-04T04:42:42;84010.56;;;-146.98;83.96
28432;BME280;15664;51.302;7.744;2023-04-04T04:45:08;84000.38;;;-146.98;83.78
28432;BME280;15664;51.302;7.744;2023-04-04T04:47:38;83980.00;;;-146.98;83.88
28432;BME280;15664;51.302;7.744;2023-04-04T04:50:06;84028.91;;;-146.98;83.84
28432;BME280;15664;51.302;7.744;2023-04-04T04:52:40;84004.44;;;-146.98;83.77
28432;BME280;15664;51.302;7.744;2023-04-04T04:55:06;83988.16;;;-146.98;84.08
28432;BME280;15664;51.302;7.744;2023-04-04T04:57:35;83963.72;;;-146.98;84.31
28432;BME280;15664;51.302;7.744;2023-04-04T05:00:06;83988.16;;;-146.98;84.40
28432;BME280;15664;51.302;7.744;2023-04-04T05:02:31;83977.97;;;-146.98;84.66
28432;BME280;15664;51.302;7.744;2023-04-04T05:04:57;84020.75;;;-146.98;84.86
28432;BME280;15664;51.302;7.744;2023-04-04T05:07:24;84012.59;;;-146.98;85.00
28432;BME280;15664;51.302;7.744;2023-04-04T05:09:51;83994.28;;;-146.98;85.08
28432;BME280;15664;51.302;7.744;2023-04-04T05:12:20;83994.28;;;-146.98;85.10
28432;BME280;15664;51.302;7.744;2023-04-04T05:14:48;83957.59;;;-146.98;85.26
28432;BME280;15664;51.302;7.744;2023-04-04T05:17:14;84004.44;;;-146.98;85.26
28432;BME280;15664;51.302;7.744;2023-04-04T05:19:40;84008.53;;;-146.98;85.46
28432;BME280;15664;51.302;7.744;2023-04-04T05:22:05;83992.22;;;-146.98;85.47
28432;BME280;15664;51.302;7.744;2023-04-04T05:24:37;83984.09;;;-146.98;85.30
28432;BME280;15664;51.302;7.744;2023-04-04T05:27:03;83975.94;;;-146.98;84.97
28432;BME280;15664;51.302;7.744;2023-04-04T05:29:36;83986.13;;;-146.98;85.13
28432;BME280;15664;51.302;7.744;2023-04-04T05:32:02;83980.00;;;-146.98;85.19
28432;BME280;15664;51.302;7.744;2023-04-04T05:34:28;83959.63;;;-146.98;85.37
28432;BME280;15664;51.302;7.744;2023-04-04T05:36:55;83935.19;;;-146.98;85.92
28432;BME280;15664;51.302;7.744;2023-04-04T05:39:21;83933.16;;;-146.98;86.66
28432;BME280;15664;51.302;7.744;2023-04-04T05:41:57;83971.88;;;-146.98;87.04
28432;BME280;15664;51.302;7.744;2023-04-04T05:44:24;83857.81;;;-146.98;86.97
28432;BME280;15664;51.302;7.744;2023-04-04T05:46:49;83959.63;;;-146.98;86.81
28432;BME280;15664;51.302;7.744;2023-04-04T05:49:15;83927.06;;;-146.98;86.45
28432;BME280;15664;51.302;7.744;2023-04-04T05:51:51;83947.41;;;-146.98;86.20
28432;BME280;15664;51.302;7.744;2023-04-04T05:54:21;83971.88;;;-146.98;85.82
28432;BME280;15664;51.302;7.744;2023-04-04T05:56:48;83973.91;;;-146.98;85.32
28432;BME280;15664;51.302;7.744;2023-04-04T05:59:35;83931.13;;;-146.98;84.87
28432;BME280;15664;51.302;7.744;2023-04-04T06:02:03;83916.88;;;-146.98;84.61
28432;BME280;15664;51.302;7.744;2023-04-04T06:04:30;83896.50;;;-146.98;84.81
28432;BME280;15664;51.302;7.744;2023-04-04T06:06:58;83908.72;;;-146.98;85.08
28432;BME280;15664;51.302;7.744;2023-04-04T06:09:24;83941.31;;;-146.98;84.13
28432;BME280;15664;51.302;7.744;2023-04-04T06:11:50;83886.31;;;-146.98;82.98
28432;BME280;15664;51.302;7.744;2023-04-04T06:14:16;83906.69;;;-146.98;83.58
28432;BME280;15664;51.302;7.744;2023-04-04T06:16:43;83884.28;;;-146.98;84.05
28432;BME280;15664;51.302;7.744;2023-04-04T06:19:08;83902.63;;;-146.98;77.83
28432;BME280;15664;51.302;7.744;2023-04-04T06:21:34;83898.53;;;-146.98;71.63
28432;BME280;15664;51.302;7.744;2023-04-04T06:24:00;83827.25;;;-146.98;69.53
28432;BME280;15664;51.302;7.744;2023-04-04T06:26:26;83817.06;;;-146.98;67.82
28432;BME280;15664;51.302;7.744;2023-04-04T06:28:51;83794.66;;;-146.98;66.18
28432;BME280;15664;51.302;7.744;2023-04-04T06:31:22;83780.41;;;-146.98;63.50
28432;BME280;15664;51.302;7.744;2023-04-04T06:33:49;83780.41;;;-146.98;59.72
28432;BME280;15664;51.302;7.744;2023-04-04T06:36:18;83694.88;;;-146.98;58.07
28432;BME280;15664;51.302;7.744;2023-04-04T06:38:45;83703.00;;;-146.98;56.56
28432;BME280;15664;51.302;7.744;2023-04-04T06:41:20;83684.69;;;-146.98;53.93
28432;BME280;15664;51.302;7.744;2023-04-04T06:43:47;83645.97;;;-146.98;52.23
28432;BME280;15664;51.302;7.744;2023-04-04T06:46:13;83617.47;;;-146.98;50.67
28432;BME280;15664;51.302;7.744;2023-04-04T06:48:38;83627.66;;;-146.98;51.00
28432;BME280;15664;51.302;7.744;2023-04-04T06:51:05;83643.94;;;-146.98;49.87
28432;BME280;15664;51.302;7.744;2023-04-04T06:53:32;83633.75;;;-146.98;49.83
28432;BME280;15664;51.302;7.744;2023-04-04T06:55:59;83688.75;;;-146.98;49.14
28432;BME280;15664;51.302;7.744;2023-04-04T06:58:25;83613.41;;;-146.98;47.81
28432;BME280;15664;51.302;7.744;2023-04-04T07:00:52;83637.84;;;-146.98;47.32
28432;BME280;15664;51.302;7.744;2023-04-04T07:03:17;83597.09;;;-146.98;47.63
28432;BME280;15664;51.302;7.744;2023-04-04T07:05:42;83607.28;;;-146.98;46.41
28432;BME280;15664;51.302;7.744;2023-04-04T07:08:08;83546.19;;;-146.98;45.03
28432;BME280;15664;51.302;7.744;2023-04-04T07:10:34;83570.63;;;-146.98;44.49
28432;BME280;15664;51.302;7.744;2023-04-04T07:13:00;83564.53;;;-146.98;45.04
28432;BME280;15664;51.302;7.744;2023-04-04T07:15:25;83489.16;;;-146.98;44.18
28432;BME280;15664;51.302;7.744;2023-04-04T07:17:52;83568.59;;;-146.98;44.91
28432;BME280;15664;51.302;7.744;2023-04-04T07:20:18;83560.44;;;-146.98;44.69
28432;BME280;15664;51.302;7.744;2023-04-04T07:22:44;83550.25;;;-146.98;44.14
28432;BME280;15664;51.302;7.744;2023-04-04T07:25:09;83503.41;;;-146.98;44.17
28432;BME280;15664;51.302;7.744;2023-04-04T07:27:37;83458.63;;;-146.98;42.94
28432;BME280;15664;51.302;7.744;2023-04-04T07:30:03;83507.50;;;-146.98;42.28
28432;BME280;15664;51.302;7.744;2023-04-04T07:32:29;83491.19;;;-146.98;42.33
28432;BME280;15664;51.302;7.744;2023-04-04T07:34:54;83474.91;;;-146.98;42.57
28432;BME280;15664;51.302;7.744;2023-04-04T07:37:19;83507.50;;;-146.98;41.64
28432;BME280;15664;51.302;7.744;2023-04-04T07:39:46;83483.06;;;-146.98;41.80
28432;BME280;15664;51.302;7.744;2023-04-04T07:42:14;83436.22;;;-146.98;41.58
28432;BME280;15664;51.302;7.744;2023-04-04T07:44:40;83503.41;;;-146.98;42.20
28432;BME280;15664;51.302;7.744;2023-04-04T07:47:05;83438.25;;;-146.98;41.56
28432;BME280;15664;51.302;7.744;2023-04-04T07:49:31;83401.59;;;-146.98;41.35
28432;BME280;15664;51.302;7.744;2023-04-04T07:51:56;83389.38;;;-146.98;41.53
28432;BME280;15664;51.302;7.744;2023-04-04T07:54:22;83389.38;;;-146.98;40.34
28432;BME280;15664;51.302;7.744;2023-04-04T07:56:48;83307.91;;;-146.98;40.27
28432;BME280;15664;51.302;7.744;2023-04-04T07:59:14;83332.34;;;-146.98;40.53
28432;BME280;15664;51.302;7.744;2023-04-04T08:01:40;83293.66;;;-146.98;39.94
28432;BME280;15664;51.302;7.744;2023-04-04T08:04:05;83322.16;;;-146.98;38.91
28432;BME280;15664;51.302;7.744;2023-04-04T08:06:31;83316.06;;;-146.98;38.39
28432;BME280;15664;51.302;7.744;2023-04-04T08:08:57;83275.31;;;-146.98;38.38
28432;BME280;15664;51.302;7.744;2023-04-04T08:11:23;83299.75;;;-146.98;37.81
28432;BME280;15664;51.302;7.744;2023-04-04T08:13:49;83311.97;;;-146.98;37.90
28432;BME280;15664;51.302;7.744;2023-04-04T08:16:14;83263.09;;;-146.98;38.14
28432;BME280;15664;51.302;7.744;2023-04-04T08:18:40;83281.44;;;-146.98;37.46
28432;BME280;15664;51.302;7.744;2023-04-04T08:21:06;83271.25;;;-146.98;38.93
28432;BME280;15664;51.302;7.744;2023-04-04T08:23:31;83226.44;;;-146.98;39.16
28432;BME280;15664;51.302;7.744;2023-04-04T08:25:57;83185.72;;;-146.98;36.86
28432;BME280;15664;51.302;7.744;2023-04-04T08:28:25;83242.75;;;-146.98;36.92
28432;BME280;15664;51.302;7.744;2023-04-04T08:30:52;83265.16;;;-146.98;38.36
28432;BME280;15664;51.302;7.744;2023-04-04T08:33:19;83236.63;;;-146.98;38.24
28432;BME280;15664;51.302;7.744;2023-04-04T08:35:45;83254.97;;;-146.98;37.06
28432;BME280;15664;51.302;7.744;2023-04-04T08:38:10;83261.06;;;-146.98;38.09
28432;BME280;15664;51.302;7.744;2023-04-04T08:40:37;83254.97;;;-146.98;37.09
28432;BME280;15664;51.302;7.744;2023-04-04T08:43:03;83240.72;;;-146.98;37.74
28432;BME280;15664;51.302;7.744;2023-04-04T08:45:30;83193.88;;;-146.98;36.51
28432;BME280;15664;51.302;7.744;2023-04-04T08:48:00;83195.91;;;-146.98;36.93
28432;BME280;15664;51.302;7.744;2023-04-04T08:50:28;83173.50;;;-146.98;35.36
28432;BME280;15664;51.302;7.744;2023-04-04T08:52:55;83173.50;;;-146.98;36.53
28432;BME280;15664;51.302;7.744;2023-04-04T08:55:21;83108.34;;;-146.98;36.15
28432;BME280;15664;51.302;7.744;2023-04-04T08:57:46;83112.41;;;-146.98;34.35
28432;BME280;15664;51.302;7.744;2023-04-04T09:00:13;83094.09;;;-146.98;33.73
28432;BME280;15664;51.302;7.744;2023-04-04T09:02:43;83047.25;;;-146.98;33.54
28432;BME280;15664;51.302;7.744;2023-04-04T09:05:10;83108.34;;;-146.98;33.26
28432;BME280;15664;51.302;7.744;2023-04-04T09:07:38;83120.56;;;-146.98;32.97
28432;BME280;15664;51.302;7.744;2023-04-04T09:10:03;83085.94;;;-146.98;33.32
28432;BME280;15664;51.302;7.744;2023-04-04T09:12:31;83114.44;;;-146.98;32.34
28432;BME280;15664;51.302;7.744;2023-04-04T09:15:01;83128.72;;;-146.98;33.03
28432;BME280;15664;51.302;7.744;2023-04-04T09:17:28;83136.84;;;-146.98;33.93
28432;BME280;15664;51.302;7.744;2023-04-04T09:19:54;83175.53;;;-146.98;32.89
28432;BME280;15664;51.302;7.744;2023-04-04T09:22:19;83185.72;;;-146.98;33.24
28432;BME280;15664;51.302;7.744;2023-04-04T09:24:45;83128.72;;;-146.98;33.14
28432;BME280;15664;51.302;7.744;2023-04-04T09:27:14;83106.31;;;-146.98;34.00
28432;BME280;15664;51.302;7.744;2023-04-04T09:29:40;83108.34;;;-146.98;33.68
28432;BME280;15664;51.302;7.744;2023-04-04T09:32:13;83112.41;;;-146.98;33.53
28432;BME280;15664;51.302;7.744;2023-04-04T09:34:40;83065.56;;;-146.98;33.30
28432;BME280;15664;51.302;7.744;2023-04-04T09:37:06;83053.34;;;-146.98;32.55
28432;BME280;15664;51.302;7.744;2023-04-04T09:39:32;83069.66;;;-146.98;33.65
28432;BME280;15664;51.302;7.744;2023-04-04T09:41:59;82969.88;;;-146.98;32.96
28432;BME280;15664;51.302;7.744;2023-04-04T09:44:25;82959.69;;;-146.98;32.50
28432;BME280;15664;51.302;7.744;2023-04-04T09:49:50;83014.66;;;-146.98;32.58
28432;BME280;15664;51.302;7.744;2023-04-04T09:52:19;83043.19;;;-146.98;32.47
28432;BME280;15664;51.302;7.744;2023-04-04T09:54:57;83033.00;;;-146.98;34.32
28432;BME280;15664;51.302;7.744;2023-04-04T09:57:30;83124.63;;;-146.98;33.62
28432;BME280;15664;51.302;7.744;2023-04-04T10:00:02;83175.53;;;-146.98;34.62
28432;BME280;15664;51.302;7.744;2023-04-04T10:02:36;83022.81;;;-146.98;31.95
28432;BME280;15664;51.302;7.744;2023-04-04T10:05:02;82908.78;;;-146.98;31.93
28432;BME280;15664;51.302;7.744;2023-04-04T10:07:29;82937.28;;;-146.98;31.37
28432;BME280;15664;51.302;7.744;2023-04-04T10:09:56;82902.66;;;-146.98;31.07
28432;BME280;15664;51.302;7.744;2023-04-04T10:12:23;82880.28;;;-146.98;31.26
28432;BME280;15664;51.302;7.744;2023-04-04T10:14:56;82888.41;;;-146.98;31.36
28432;BME280;15664;51.302;7.744;2023-04-04T10:17:23;82890.44;;;-146.98;31.63
28432;BME280;15664;51.302;7.744;2023-04-04T10:19:48;82870.09;;;-146.98;31.66
28432;BME280;15664;51.302;7.744;2023-04-04T10:22:14;82918.97;;;-146.98;32.24
28432;BME280;15664;51.302;7.744;2023-04-04T10:24:40;82863.97;;;-146.98;30.85
28432;BME280;15664;51.302;7.744;2023-04-04T10:27:07;82815.13;;;-146.98;32.17
28432;BME280;15664;51.302;7.744;2023-04-04T10:29:32;82754.03;;;-146.98;32.75
28432;BME280;15664;51.302;7.744;2023-04-04T10:32:01;82790.69;;;-146.98;31.45
28432;BME280;15664;51.302;7.744;2023-04-04T10:34:38;82650.19;;;-146.98;29.95
28432;BME280;15664;51.302;7.744;2023-04-04T10:37:14;82662.41;;;-146.98;29.18
28432;BME280;15664;51.302;7.744;2023-04-04T10:39:51;82635.94;;;-146.98;28.78
28432;BME280;15664;51.302;7.744;2023-04-04T10:42:18;82564.66;;;-146.98;30.91
28432;BME280;15664;51.302;7.744;2023-04-04T10:44:44;82509.69;;;-146.98;28.54
28432;BME280;15664;51.302;7.744;2023-04-04T10:47:20;82424.16;;;-146.98;29.93
28432;BME280;15664;51.302;7.744;2023-04-04T10:49:48;82544.31;;;-146.98;28.16
28432;BME280;15664;51.302;7.744;2023-04-04T10:52:17;82570.78;;;-146.98;28.84
28432;BME280;15664;51.302;7.744;2023-04-04T10:54:43;82501.53;;;-146.98;29.62
28432;BME280;15664;51.302;7.744;2023-04-04T10:57:11;82346.81;;;-146.98;28.51
28432;BME280;15664;51.302;7.744;2023-04-04T11:00:01;82367.16;;;-146.98;27.76
28432;BME280;15664;51.302;7.744;2023-04-04T11:02:55;82381.41;;;-146.98;28.26
28432;BME280;15664;51.302;7.744;2023-04-04T11:05:23;82359.03;;;-146.98;27.40
28432;BME280;15664;51.302;7.744;2023-04-04T11:08:00;82495.44;;;-146.98;27.18
28432;BME280;15664;51.302;7.744;2023-04-04T11:10:30;82599.28;;;-146.98;28.40
28432;BME280;15664;51.302;7.744;2023-04-04T11:12:57;82528.00;;;-146.98;29.42
28432;BME280;15664;51.302;7.744;2023-04-04T11:16:00;82534.13;;;-146.98;28.16
28432;BME280;15664;51.302;7.744;2023-04-04T11:21:27;82603.34;;;-146.98;29.39
28432;BME280;15664;51.302;7.744;2023-04-04T11:29:00;82511.72;;;-146.98;29.15
28432;BME280;15664;51.302;7.744;2023-04-04T11:31:31;82591.13;;;-146.98;29.44
28432;BME280;15664;51.302;7.744;2023-04-04T11:34:08;82597.25;;;-146.98;31.13
28432;BME280;15664;51.302;7.744;2023-04-04T11:44:29;82373.28;;;-146.98;27.07
28432;BME280;15664;51.302;7.744;2023-04-04T11:49:32;82306.09;;;-146.98;28.60
28432;BME280;15664;51.302;7.744;2023-04-04T11:52:04;82269.44;;;-146.98;27.40
28432;BME280;15664;51.302;7.744;2023-04-04T11:54:30;82302.00;;;-146.98;28.00
28432;BME280;15664;51.302;7.744;2023-04-04T11:56:56;82306.09;;;-146.98;27.46
28432;BME280;15664;51.302;7.744;2023-04-04T11:59:21;82271.47;;;-146.98;27.89
28432;BME280;15664;51.302;7.744;2023-04-04T12:01:47;82265.38;;;-146.98;26.71
28432;BME280;15664;51.302;7.744;2023-04-04T12:04:17;82363.09;;;-146.98;26.73
28432;BME280;15664;51.302;7.744;2023-04-04T12:06:52;82397.69;;;-146.98;26.77
28432;BME280;15664;51.302;7.744;2023-04-04T12:09:18;82475.06;;;-146.98;28.17
28432;BME280;15664;51.302;7.744;2023-04-04T12:11:48;82263.31;;;-146.98;27.29
28432;BME280;15664;51.302;7.744;2023-04-04T12:14:18;82379.38;;;-146.98;27.72
28432;BME280;15664;51.302;7.744;2023-04-04T12:16:46;82601.31;;;-146.98;29.88
28432;BME280;15664;51.302;7.744;2023-04-04T12:19:12;82523.94;;;-146.98;30.45
28432;BME280;15664;51.302;7.744;2023-04-04T12:21:37;82420.09;;;-146.98;29.36
28432;BME280;15664;51.302;7.744;2023-04-04T12:24:03;82444.53;;;-146.98;29.26
28432;BME280;15664;51.302;7.744;2023-04-04T12:26:29;82356.97;;;-146.98;28.25
28432;BME280;15664;51.302;7.744;2023-04-04T12:28:57;82440.47;;;-146.98;28.43
28432;BME280;15664;51.302;7.744;2023-04-04T12:31:24;82509.69;;;-146.98;28.96
28432;BME280;15664;51.302;7.744;2023-04-04T12:33:50;82363.09;;;-146.98;28.12
28432;BME280;15664;51.302;7.744;2023-04-04T12:36:16;82226.69;;;-146.98;27.41
28432;BME280;15664;51.302;7.744;2023-04-04T12:41:22;82021.06;;;-146.98;24.86
28432;BME280;15664;51.302;7.744;2023-04-04T12:43:48;82112.66;;;-146.98;25.82
28432;BME280;15664;51.302;7.744;2023-04-04T12:46:13;82281.66;;;-146.98;26.62
28432;BME280;15664;51.302;7.744;2023-04-04T12:48:39;82383.44;;;-146.98;29.88
28432;BME280;15664;51.302;7.744;2023-04-04T12:51:05;82293.88;;;-146.98;27.46
28432;BME280;15664;51.302;7.744;2023-04-04T12:53:32;82192.06;;;-146.98;26.42
28432;BME280;15664;51.302;7.744;2023-04-04T12:56:01;82214.47;;;-146.98;26.20
28432;BME280;15664;51.302;7.744;2023-04-04T12:58:29;82232.78;;;-146.98;26.68
28432;BME280;15664;51.302;7.744;2023-04-04T13:00:58;82247.03;;;-146.98;27.16
28432;BME280;15664;51.302;7.744;2023-04-04T13:03:24;82228.72;;;-146.98;27.48
28432;BME280;15664;51.302;7.744;2023-04-04T13:05:51;82131.00;;;-146.98;26.66
28432;BME280;15664;51.302;7.744;2023-04-04T13:08:17;82061.78;;;-146.98;26.00